Terminal Aerodrome Forecast
Issued by NWS La Crosse, WI

Home | Current Version | Previous Version | Text Only | Print | Product List | Glossary On
Versions: 1 2 3 4 5 6 7 8 9 10 11 12 13 14 15 16 17 18 19 20 21 22 23 24 25 26
000
FTUS43 KARX 281434 AAA
TAFRST
TAF AMD
KRST 281434Z 2815/2912 14008KT P6SM VCSH BKN080
     FM281530 14009KT 6SM -RA SCT014 BKN040
      TEMPO 2817/2819 3SM -RA BR BKN012
     FM281900 14012KT 3SM -RA BR BKN030
      TEMPO 2820/2823 1SM -TSRA BR BKN006CB
     FM290000 15010KT 6SM -SHRA BR SCT008 BKN025
     FM290400 18010KT 4SM BR OVC004=

USA.gov is the U.S. government's official web portal to all federal, state and local government web resources and services.